sensor_id;sensor_type;location;lat;lon;timestamp;P1;durP1;ratioP1;P2;durP2;ratioP2
18322;SDS011;9287;49.456;11.064;2023-04-06T00:02:18;5.63;;;3.40;;
18322;SDS011;9287;49.456;11.064;2023-04-06T00:04:47;4.87;;;3.10;;
18322;SDS011;9287;49.456;11.064;2023-04-06T00:07:15;4.60;;;3.27;;
18322;SDS011;9287;49.456;11.064;2023-04-06T00:09:42;4.83;;;3.80;;
18322;SDS011;9287;49.456;11.064;2023-04-06T00:12:11;6.50;;;3.90;;
18322;SDS011;9287;49.456;11.064;2023-04-06T00:14:40;5.73;;;3.80;;
18322;SDS011;9287;49.456;11.064;2023-04-06T00:17:08;5.57;;;3.40;;
18322;SDS011;9287;49.456;11.064;2023-04-06T00:19:36;3.80;;;3.50;;
18322;SDS011;9287;49.456;11.064;2023-04-06T00:22:05;3.47;;;3.17;;
18322;SDS011;9287;49.456;11.064;2023-04-06T00:24:33;5.23;;;4.10;;
18322;SDS011;9287;49.456;11.064;2023-04-06T00:27:01;5.90;;;3.67;;
18322;SDS011;9287;49.456;11.064;2023-04-06T00:29:29;5.70;;;3.30;;
18322;SDS011;9287;49.456;11.064;2023-04-06T00:31:57;4.87;;;3.70;;
18322;SDS011;9287;49.456;11.064;2023-04-06T00:34:25;6.50;;;3.67;;
18322;SDS011;9287;49.456;11.064;2023-04-06T00:36:53;4.77;;;3.90;;
18322;SDS011;9287;49.456;11.064;2023-04-06T00:39:22;3.93;;;3.50;;
18322;SDS011;9287;49.456;11.064;2023-04-06T00:41:51;4.23;;;3.80;;
18322;SDS011;9287;49.456;11.064;2023-04-06T00:44:20;3.67;;;3.33;;
18322;SDS011;9287;49.456;11.064;2023-04-06T00:46:50;5.80;;;3.90;;
18322;SDS011;9287;49.456;11.064;2023-04-06T00:49:18;5.53;;;4.13;;
18322;SDS011;9287;49.456;11.064;2023-04-06T00:51:46;4.83;;;3.43;;
18322;SDS011;9287;49.456;11.064;2023-04-06T00:54:14;5.00;;;3.77;;
18322;SDS011;9287;49.456;11.064;2023-04-06T00:56:43;5.83;;;3.93;;
18322;SDS011;9287;49.456;11.064;2023-04-06T00:59:11;5.10;;;4.37;;
18322;SDS011;9287;49.456;11.064;2023-04-06T01:01:39;5.20;;;4.30;;
18322;SDS011;9287;49.456;11.064;2023-04-06T01:04:07;5.07;;;4.30;;
18322;SDS011;9287;49.456;11.064;2023-04-06T01:06:36;5.70;;;5.17;;
18322;SDS011;9287;49.456;11.064;2023-04-06T01:09:04;6.50;;;5.80;;
18322;SDS011;9287;49.456;11.064;2023-04-06T01:11:32;6.73;;;5.87;;
18322;SDS011;9287;49.456;11.064;2023-04-06T01:14:02;6.90;;;5.67;;
18322;SDS011;9287;49.456;11.064;2023-04-06T01:16:30;6.07;;;5.20;;
18322;SDS011;9287;49.456;11.064;2023-04-06T01:18:58;6.07;;;5.47;;
18322;SDS011;9287;49.456;11.064;2023-04-06T01:21:26;5.83;;;5.23;;
18322;SDS011;9287;49.456;11.064;2023-04-06T01:23:55;5.77;;;4.83;;
18322;SDS011;9287;49.456;11.064;2023-04-06T01:26:23;5.53;;;4.20;;
18322;SDS011;9287;49.456;11.064;2023-04-06T01:28:51;4.53;;;4.10;;
18322;SDS011;9287;49.456;11.064;2023-04-06T01:31:19;6.23;;;4.57;;
18322;SDS011;9287;49.456;11.064;2023-04-06T01:33:47;4.90;;;4.40;;
18322;SDS011;9287;49.456;11.064;2023-04-06T01:36:15;5.27;;;4.07;;
18322;SDS011;9287;49.456;11.064;2023-04-06T01:38:43;6.10;;;4.23;;
18322;SDS011;9287;49.456;11.064;2023-04-06T01:41:12;7.37;;;4.37;;
18322;SDS011;9287;49.456;11.064;2023-04-06T01:43:40;5.90;;;5.10;;
18322;SDS011;9287;49.456;11.064;2023-04-06T01:46:08;8.33;;;4.10;;
18322;SDS011;9287;49.456;11.064;2023-04-06T01:48:36;4.73;;;4.23;;
18322;SDS011;9287;49.456;11.064;2023-04-06T01:51:04;6.77;;;4.80;;
18322;SDS011;9287;49.456;11.064;2023-04-06T01:53:32;6.43;;;4.53;;
18322;SDS011;9287;49.456;11.064;2023-04-06T01:55:59;8.13;;;4.93;;
18322;SDS011;9287;49.456;11.064;2023-04-06T01:58:29;6.83;;;5.23;;
18322;SDS011;9287;49.456;11.064;2023-04-06T02:00:57;5.17;;;4.73;;
18322;SDS011;9287;49.456;11.064;2023-04-06T02:03:25;5.83;;;4.87;;
18322;SDS011;9287;49.456;11.064;2023-04-06T02:05:53;10.40;;;5.10;;
18322;SDS011;9287;49.456;11.064;2023-04-06T02:08:20;6.00;;;5.40;;
18322;SDS011;9287;49.456;11.064;2023-04-06T02:10:48;5.40;;;4.63;;
18322;SDS011;9287;49.456;11.064;2023-04-06T02:13:16;6.63;;;5.07;;
18322;SDS011;9287;49.456;11.064;2023-04-06T02:15:45;7.20;;;5.37;;
18322;SDS011;9287;49.456;11.064;2023-04-06T02:18:13;8.50;;;5.50;;
18322;SDS011;9287;49.456;11.064;2023-04-06T02:20:41;10.07;;;6.43;;
18322;SDS011;9287;49.456;11.064;2023-04-06T02:23:09;6.57;;;5.93;;
18322;SDS011;9287;49.456;11.064;2023-04-06T02:25:37;7.07;;;5.80;;
18322;SDS011;9287;49.456;11.064;2023-04-06T02:28:05;8.30;;;6.00;;
18322;SDS011;9287;49.456;11.064;2023-04-06T02:30:32;6.37;;;5.30;;
18322;SDS011;9287;49.456;11.064;2023-04-06T02:33:02;8.23;;;6.17;;
18322;SDS011;9287;49.456;11.064;2023-04-06T02:35:30;8.70;;;6.20;;
18322;SDS011;9287;49.456;11.064;2023-04-06T02:37:58;6.93;;;6.20;;
18322;SDS011;9287;49.456;11.064;2023-04-06T02:40:26;7.13;;;6.43;;
18322;SDS011;9287;49.456;11.064;2023-04-06T02:42:53;8.57;;;6.70;;
18322;SDS011;9287;49.456;11.064;2023-04-06T02:45:21;7.10;;;6.30;;
18322;SDS011;9287;49.456;11.064;2023-04-06T02:47:49;7.30;;;5.50;;
18322;SDS011;9287;49.456;11.064;2023-04-06T02:50:18;8.00;;;6.07;;
18322;SDS011;9287;49.456;11.064;2023-04-06T02:52:46;8.27;;;6.47;;
18322;SDS011;9287;49.456;11.064;2023-04-06T02:55:14;6.90;;;5.70;;
18322;SDS011;9287;49.456;11.064;2023-04-06T02:57:42;7.77;;;6.10;;
18322;SDS011;9287;49.456;11.064;2023-04-06T03:00:10;8.73;;;6.13;;
18322;SDS011;9287;49.456;11.064;2023-04-06T03:02:39;7.77;;;6.37;;
18322;SDS011;9287;49.456;11.064;2023-04-06T03:05:07;8.17;;;6.67;;
18322;SDS011;9287;49.456;11.064;2023-04-06T03:07:36;7.87;;;7.07;;
18322;SDS011;9287;49.456;11.064;2023-04-06T03:10:04;7.83;;;6.13;;
18322;SDS011;9287;49.456;11.064;2023-04-06T03:12:32;7.07;;;5.67;;
18322;SDS011;9287;49.456;11.064;2023-04-06T03:15:00;7.90;;;5.70;;
18322;SDS011;9287;49.456;11.064;2023-04-06T03:17:28;6.57;;;5.83;;
18322;SDS011;9287;49.456;11.064;2023-04-06T03:19:56;6.80;;;5.90;;
18322;SDS011;9287;49.456;11.064;2023-04-06T03:22:24;7.77;;;6.47;;
18322;SDS011;9287;49.456;11.064;2023-04-06T03:24:53;7.93;;;5.87;;
18322;SDS011;9287;49.456;11.064;2023-04-06T03:27:21;7.23;;;5.03;;
18322;SDS011;9287;49.456;11.064;2023-04-06T03:29:49;6.37;;;5.50;;
18322;SDS011;9287;49.456;11.064;2023-04-06T03:32:16;6.77;;;5.77;;
18322;SDS011;9287;49.456;11.064;2023-04-06T03:34:44;5.57;;;5.07;;
18322;SDS011;9287;49.456;11.064;2023-04-06T03:37:12;6.43;;;5.33;;
18322;SDS011;9287;49.456;11.064;2023-04-06T03:39:40;6.10;;;5.43;;
18322;SDS011;9287;49.456;11.064;2023-04-06T03:42:09;6.40;;;5.13;;
18322;SDS011;9287;49.456;11.064;2023-04-06T03:44:37;7.17;;;5.43;;
18322;SDS011;9287;49.456;11.064;2023-04-06T03:47:04;7.50;;;5.17;;
18322;SDS011;9287;49.456;11.064;2023-04-06T03:49:32;6.03;;;4.87;;
18322;SDS011;9287;49.456;11.064;2023-04-06T03:52:00;5.00;;;4.60;;
18322;SDS011;9287;49.456;11.064;2023-04-06T03:54:28;6.83;;;5.07;;
18322;SDS011;9287;49.456;11.064;2023-04-06T03:56:56;5.93;;;5.03;;
18322;SDS011;9287;49.456;11.064;2023-04-06T03:59:25;6.33;;;5.07;;
18322;SDS011;9287;49.456;11.064;2023-04-06T04:01:53;5.13;;;4.10;;
18322;SDS011;9287;49.456;11.064;2023-04-06T04:04:21;6.97;;;5.17;;
18322;SDS011;9287;49.456;11.064;2023-04-06T04:06:49;8.37;;;5.40;;
18322;SDS011;9287;49.456;11.064;2023-04-06T04:09:17;5.47;;;4.00;;
18322;SDS011;9287;49.456;11.064;2023-04-06T04:11:45;5.80;;;4.97;;
18322;SDS011;9287;49.456;11.064;2023-04-06T04:14:12;4.70;;;4.30;;
18322;SDS011;9287;49.456;11.064;2023-04-06T04:16:42;5.37;;;4.37;;
18322;SDS011;9287;49.456;11.064;2023-04-06T04:19:10;4.77;;;4.03;;
18322;SDS011;9287;49.456;11.064;2023-04-06T04:21:42;9.13;;;4.43;;
18322;SDS011;9287;49.456;11.064;2023-04-06T04:24:11;5.37;;;4.87;;
18322;SDS011;9287;49.456;11.064;2023-04-06T04:26:39;9.53;;;4.60;;
18322;SDS011;9287;49.456;11.064;2023-04-06T04:29:07;4.53;;;4.13;;
18322;SDS011;9287;49.456;11.064;2023-04-06T04:31:36;4.80;;;3.70;;
18322;SDS011;9287;49.456;11.064;2023-04-06T04:34:05;4.83;;;4.00;;
18322;SDS011;9287;49.456;11.064;2023-04-06T04:36:34;6.90;;;4.57;;
18322;SDS011;9287;49.456;11.064;2023-04-06T04:39:02;5.07;;;4.20;;
18322;SDS011;9287;49.456;11.064;2023-04-06T04:41:29;4.67;;;4.27;;
18322;SDS011;9287;49.456;11.064;2023-04-06T04:43:57;4.10;;;3.80;;
18322;SDS011;9287;49.456;11.064;2023-04-06T04:46:25;5.50;;;4.03;;
18322;SDS011;9287;49.456;11.064;2023-04-06T04:48:53;6.63;;;4.27;;
18322;SDS011;9287;49.456;11.064;2023-04-06T04:51:22;5.60;;;4.20;;
18322;SDS011;9287;49.456;11.064;2023-04-06T04:53:51;8.40;;;4.13;;
18322;SDS011;9287;49.456;11.064;2023-04-06T04:56:19;4.03;;;3.70;;
18322;SDS011;9287;49.456;11.064;2023-04-06T04:58:48;5.10;;;4.10;;
18322;SDS011;9287;49.456;11.064;2023-04-06T05:01:16;5.57;;;4.40;;
18322;SDS011;9287;49.456;11.064;2023-04-06T05:03:44;6.17;;;4.87;;
18322;SDS011;9287;49.456;11.064;2023-04-06T05:06:13;6.17;;;4.57;;
18322;SDS011;9287;49.456;11.064;2023-04-06T05:08:42;7.27;;;4.07;;
18322;SDS011;9287;49.456;11.064;2023-04-06T05:11:10;4.70;;;3.63;;
18322;SDS011;9287;49.456;11.064;2023-04-06T05:13:38;6.23;;;4.20;;
18322;SDS011;9287;49.456;11.064;2023-04-06T05:16:07;6.53;;;4.00;;
18322;SDS011;9287;49.456;11.064;2023-04-06T05:18:35;4.90;;;3.93;;
18322;SDS011;9287;49.456;11.064;2023-04-06T05:21:03;6.83;;;4.37;;
18322;SDS011;9287;49.456;11.064;2023-04-06T05:23:31;7.50;;;3.83;;
18322;SDS011;9287;49.456;11.064;2023-04-06T05:26:01;8.83;;;4.60;;
18322;SDS011;9287;49.456;11.064;2023-04-06T05:28:29;4.37;;;3.97;;
18322;SDS011;9287;49.456;11.064;2023-04-06T05:30:57;7.40;;;4.47;;
18322;SDS011;9287;49.456;11.064;2023-04-06T05:33:25;8.13;;;4.47;;
18322;SDS011;9287;49.456;11.064;2023-04-06T05:35:53;5.50;;;4.40;;
18322;SDS011;9287;49.456;11.064;2023-04-06T05:38:21;7.27;;;4.10;;
18322;SDS011;9287;49.456;11.064;2023-04-06T05:40:49;6.93;;;4.53;;
18322;SDS011;9287;49.456;11.064;2023-04-06T05:43:18;7.40;;;4.47;;
18322;SDS011;9287;49.456;11.064;2023-04-06T05:45:48;6.67;;;5.30;;
18322;SDS011;9287;49.456;11.064;2023-04-06T05:48:16;12.10;;;5.00;;
18322;SDS011;9287;49.456;11.064;2023-04-06T05:50:47;8.90;;;4.47;;
18322;SDS011;9287;49.456;11.064;2023-04-06T05:53:15;7.83;;;5.07;;
18322;SDS011;9287;49.456;11.064;2023-04-06T05:55:43;8.37;;;4.90;;
18322;SDS011;9287;49.456;11.064;2023-04-06T05:58:11;5.13;;;4.63;;
18322;SDS011;9287;49.456;11.064;2023-04-06T06:00:41;5.77;;;4.60;;
18322;SDS011;9287;49.456;11.064;2023-04-06T06:03:12;6.63;;;5.27;;
18322;SDS011;9287;49.456;11.064;2023-04-06T06:05:41;9.27;;;5.47;;
18322;SDS011;9287;49.456;11.064;2023-04-06T06:08:09;8.33;;;4.77;;
18322;SDS011;9287;49.456;11.064;2023-04-06T06:10:38;7.67;;;4.80;;
18322;SDS011;9287;49.456;11.064;2023-04-06T06:13:06;6.40;;;4.10;;
18322;SDS011;9287;49.456;11.064;2023-04-06T06:15:34;8.53;;;4.57;;
18322;SDS011;9287;49.456;11.064;2023-04-06T06:18:04;7.23;;;4.43;;
18322;SDS011;9287;49.456;11.064;2023-04-06T06:20:32;10.97;;;5.57;;
18322;SDS011;9287;49.456;11.064;2023-04-06T06:22:59;10.07;;;4.90;;
18322;SDS011;9287;49.456;11.064;2023-04-06T06:25:27;6.27;;;4.90;;
18322;SDS011;9287;49.456;11.064;2023-04-06T06:27:57;7.37;;;5.23;;
18322;SDS011;9287;49.456;11.064;2023-04-06T06:30:24;7.67;;;5.27;;
18322;SDS011;9287;49.456;11.064;2023-04-06T06:32:53;9.77;;;5.17;;
18322;SDS011;9287;49.456;11.064;2023-04-06T06:35:22;6.80;;;5.10;;
18322;SDS011;9287;49.456;11.064;2023-04-06T06:37:50;10.23;;;5.13;;
18322;SDS011;9287;49.456;11.064;2023-04-06T06:40:18;9.43;;;5.53;;
18322;SDS011;9287;49.456;11.064;2023-04-06T06:42:50;10.33;;;5.70;;
18322;SDS011;9287;49.456;11.064;2023-04-06T06:45:18;5.80;;;4.73;;
18322;SDS011;9287;49.456;11.064;2023-04-06T06:47:46;6.50;;;5.03;;
18322;SDS011;9287;49.456;11.064;2023-04-06T06:50:14;9.60;;;5.17;;
18322;SDS011;9287;49.456;11.064;2023-04-06T06:52:44;7.70;;;4.90;;
18322;SDS011;9287;49.456;11.064;2023-04-06T06:55:11;6.70;;;3.90;;
18322;SDS011;9287;49.456;11.064;2023-04-06T06:57:39;4.40;;;3.93;;
18322;SDS011;9287;49.456;11.064;2023-04-06T07:00:09;7.37;;;4.57;;
18322;SDS011;9287;49.456;11.064;2023-04-06T07:02:39;7.03;;;4.10;;
18322;SDS011;9287;49.456;11.064;2023-04-06T07:05:07;9.03;;;3.90;;
18322;SDS011;9287;49.456;11.064;2023-04-06T07:07:53;5.03;;;3.85;;
18322;SDS011;9287;49.456;11.064;2023-04-06T07:10:22;4.45;;;4.03;;
18322;SDS011;9287;49.456;11.064;2023-04-06T07:12:50;5.45;;;3.85;;
18322;SDS011;9287;49.456;11.064;2023-04-06T07:15:18;7.80;;;4.32;;
18322;SDS011;9287;49.456;11.064;2023-04-06T07:17:46;4.65;;;3.80;;
18322;SDS011;9287;49.456;11.064;2023-04-06T07:20:15;6.65;;;3.92;;
18322;SDS011;9287;49.456;11.064;2023-04-06T07:22:43;6.70;;;3.65;;
18322;SDS011;9287;49.456;11.064;2023-04-06T07:25:13;5.15;;;4.65;;
18322;SDS011;9287;49.456;11.064;2023-04-06T07:27:41;7.28;;;4.43;;
18322;SDS011;9287;49.456;11.064;2023-04-06T07:30:09;8.02;;;4.15;;
18322;SDS011;9287;49.456;11.064;2023-04-06T07:32:37;7.03;;;4.53;;
18322;SDS011;9287;49.456;11.064;2023-04-06T07:35:05;4.18;;;3.75;;
18322;SDS011;9287;49.456;11.064;2023-04-06T07:37:33;6.80;;;4.68;;
18322;SDS011;9287;49.456;11.064;2023-04-06T07:40:01;5.07;;;4.63;;
18322;SDS011;9287;49.456;11.064;2023-04-06T07:42:30;8.40;;;4.70;;
18322;SDS011;9287;49.456;11.064;2023-04-06T07:44:59;7.25;;;4.28;;
18322;SDS011;9287;49.456;11.064;2023-04-06T07:47:27;4.88;;;4.38;;
18322;SDS011;9287;49.456;11.064;2023-04-06T07:49:55;5.80;;;4.32;;
18322;SDS011;9287;49.456;11.064;2023-04-06T07:52:23;6.03;;;4.75;;
18322;SDS011;9287;49.456;11.064;2023-04-06T07:54:51;6.68;;;4.50;;
18322;SDS011;9287;49.456;11.064;2023-04-06T07:57:19;4.57;;;4.20;;
18322;SDS011;9287;49.456;11.064;2023-04-06T07:59:48;5.35;;;4.47;;
18322;SDS011;9287;49.456;11.064;2023-04-06T08:02:15;6.85;;;5.28;;
18322;SDS011;9287;49.456;11.064;2023-04-06T08:04:43;5.05;;;4.63;;
18322;SDS011;9287;49.456;11.064;2023-04-06T08:07:11;5.30;;;4.80;;
18322;SDS011;9287;49.456;11.064;2023-04-06T08:09:39;6.40;;;4.97;;
18322;SDS011;9287;49.456;11.064;2023-04-06T08:12:07;6.65;;;5.20;;
18322;SDS011;9287;49.456;11.064;2023-04-06T08:14:35;5.13;;;4.65;;
18322;SDS011;9287;49.456;11.064;2023-04-06T08:17:04;6.25;;;5.32;;
18322;SDS011;9287;49.456;11.064;2023-04-06T08:19:32;5.93;;;5.43;;
18322;SDS011;9287;49.456;11.064;2023-04-06T08:22:00;6.05;;;5.45;;
18322;SDS011;9287;49.456;11.064;2023-04-06T08:24:28;4.97;;;4.57;;
18322;SDS011;9287;49.456;11.064;2023-04-06T08:26:58;6.32;;;4.72;;
18322;SDS011;9287;49.456;11.064;2023-04-06T08:29:26;5.88;;;5.30;;
18322;SDS011;9287;49.456;11.064;2023-04-06T08:31:54;5.38;;;4.88;;
18322;SDS011;9287;49.456;11.064;2023-04-06T08:34:23;7.00;;;5.90;;
18322;SDS011;9287;49.456;11.064;2023-04-06T08:36:51;6.18;;;5.57;;
18322;SDS011;9287;49.456;11.064;2023-04-06T08:39:19;8.70;;;5.57;;
18322;SDS011;9287;49.456;11.064;2023-04-06T08:41:51;8.52;;;5.85;;
18322;SDS011;9287;49.456;11.064;2023-04-06T08:44:23;8.10;;;5.85;;
18322;SDS011;9287;49.456;11.064;2023-04-06T08:46:51;5.70;;;5.20;;
18322;SDS011;9287;49.456;11.064;2023-04-06T08:49:19;5.65;;;4.93;;
18322;SDS011;9287;49.456;11.064;2023-04-06T08:51:49;6.53;;;5.93;;
18322;SDS011;9287;49.456;11.064;2023-04-06T08:54:18;6.18;;;5.30;;
18322;SDS011;9287;49.456;11.064;2023-04-06T08:56:45;7.03;;;5.20;;
18322;SDS011;9287;49.456;11.064;2023-04-06T08:59:14;6.97;;;5.38;;
18322;SDS011;9287;49.456;11.064;2023-04-06T09:01:43;7.57;;;5.68;;
18322;SDS011;9287;49.456;11.064;2023-04-06T09:04:13;6.10;;;5.38;;
18322;SDS011;9287;49.456;11.064;2023-04-06T09:06:42;6.00;;;4.95;;
18322;SDS011;9287;49.456;11.064;2023-04-06T09:09:11;5.10;;;4.57;;
18322;SDS011;9287;49.456;11.064;2023-04-06T09:11:43;5.45;;;4.80;;
18322;SDS011;9287;49.456;11.064;2023-04-06T09:14:12;7.78;;;5.22;;
18322;SDS011;9287;49.456;11.064;2023-04-06T09:16:40;8.63;;;5.90;;
18322;SDS011;9287;49.456;11.064;2023-04-06T09:19:09;5.53;;;5.03;;
18322;SDS011;9287;49.456;11.064;2023-04-06T09:21:37;7.30;;;4.35;;
18322;SDS011;9287;49.456;11.064;2023-04-06T09:24:06;9.07;;;5.45;;
18322;SDS011;9287;49.456;11.064;2023-04-06T09:26:45;7.30;;;5.45;;
18322;SDS011;9287;49.456;11.064;2023-04-06T09:29:21;5.53;;;5.03;;
18322;SDS011;9287;49.456;11.064;2023-04-06T09:31:51;5.63;;;4.85;;
18322;SDS011;9287;49.456;11.064;2023-04-06T09:34:22;5.63;;;4.93;;
18322;SDS011;9287;49.456;11.064;2023-04-06T09:36:50;6.38;;;5.78;;
18322;SDS011;9287;49.456;11.064;2023-04-06T09:39:20;6.03;;;5.43;;
18322;SDS011;9287;49.456;11.064;2023-04-06T09:41:51;5.78;;;5.03;;
18322;SDS011;9287;49.456;11.064;2023-04-06T09:44:20;8.98;;;5.22;;
18322;SDS011;9287;49.456;11.064;2023-04-06T09:46:50;5.70;;;5.20;;
18322;SDS011;9287;49.456;11.064;2023-04-06T09:49:27;5.75;;;5.20;;
18322;SDS011;9287;49.456;11.064;2023-04-06T09:51:56;6.07;;;5.57;;
18322;SDS011;9287;49.456;11.064;2023-04-06T09:54:27;5.43;;;4.72;;
18322;SDS011;9287;49.456;11.064;2023-04-06T09:57:01;6.57;;;5.75;;
18322;SDS011;9287;49.456;11.064;2023-04-06T09:59:37;6.50;;;5.90;;
18322;SDS011;9287;49.456;11.064;2023-04-06T10:02:14;6.80;;;6.20;;
18322;SDS011;9287;49.456;11.064;2023-04-06T10:04:50;6.40;;;5.75;;
18322;SDS011;9287;49.456;11.064;2023-04-06T10:07:23;6.75;;;5.57;;
18322;SDS011;9287;49.456;11.064;2023-04-06T10:09:52;6.20;;;5.65;;
18322;SDS011;9287;49.456;11.064;2023-04-06T10:12:23;7.47;;;5.50;;
18322;SDS011;9287;49.456;11.064;2023-04-06T10:14:51;6.25;;;5.75;;
18322;SDS011;9287;49.456;11.064;2023-04-06T10:17:19;6.28;;;5.68;;
18322;SDS011;9287;49.456;11.064;2023-04-06T10:19:49;6.90;;;6.20;;
18322;SDS011;9287;49.456;11.064;2023-04-06T10:22:22;6.07;;;5.40;;
18322;SDS011;9287;49.456;11.064;2023-04-06T10:24:56;7.13;;;5.55;;
18322;SDS011;9287;49.456;11.064;2023-04-06T10:27:28;6.25;;;5.70;;
18322;SDS011;9287;49.456;11.064;2023-04-06T10:30:01;6.28;;;5.20;;
18322;SDS011;9287;49.456;11.064;2023-04-06T10:32:33;7.10;;;5.90;;
18322;SDS011;9287;49.456;11.064;2023-04-06T10:35:06;6.43;;;5.57;;
18322;SDS011;9287;49.456;11.064;2023-04-06T10:37:50;6.90;;;5.90;;
18322;SDS011;9287;49.456;11.064;2023-04-06T10:40:19;5.80;;;5.38;;
18322;SDS011;9287;49.456;11.064;2023-04-06T10:42:51;6.60;;;5.43;;
18322;SDS011;9287;49.456;11.064;2023-04-06T10:45:20;5.88;;;5.30;;
18322;SDS011;9287;49.456;11.064;2023-04-06T10:47:49;6.90;;;6.20;;
18322;SDS011;9287;49.456;11.064;2023-04-06T10:50:19;7.47;;;5.15;;
18322;SDS011;9287;49.456;11.064;2023-04-06T10:52:58;7.18;;;5.80;;
18322;SDS011;9287;49.456;11.064;2023-04-06T10:55:26;6.30;;;5.70;;
18322;SDS011;9287;49.456;11.064;2023-04-06T10:57:57;6.28;;;5.68;;
18322;SDS011;9287;49.456;11.064;2023-04-06T11:00:24;8.35;;;5.88;;
18322;SDS011;9287;49.456;11.064;2023-04-06T11:03:08;6.40;;;5.57;;
18322;SDS011;9287;49.456;11.064;2023-04-06T11:05:36;6.88;;;6.07;;
18322;SDS011;9287;49.456;11.064;2023-04-06T11:08:04;6.57;;;5.87;;
18322;SDS011;9287;49.456;11.064;2023-04-06T11:10:32;6.50;;;5.70;;
18322;SDS011;9287;49.456;11.064;2023-04-06T11:13:02;6.20;;;5.70;;
18322;SDS011;9287;49.456;11.064;2023-04-06T11:15:33;6.97;;;5.97;;
18322;SDS011;9287;49.456;11.064;2023-04-06T11:18:04;5.80;;;5.20;;
18322;SDS011;9287;49.456;11.064;2023-04-06T11:20:32;6.97;;;5.47;;
18322;SDS011;9287;49.456;11.064;2023-04-06T11:23:00;6.20;;;5.40;;
18322;SDS011;9287;49.456;11.064;2023-04-06T11:25:29;5.67;;;5.17;;
18322;SDS011;9287;49.456;11.064;2023-04-06T11:27:58;7.00;;;5.70;;
18322;SDS011;9287;49.456;11.064;2023-04-06T11:30:29;5.97;;;5.47;;
18322;SDS011;9287;49.456;11.064;2023-04-06T11:33:00;5.13;;;4.63;;
18322;SDS011;9287;49.456;11.064;2023-04-06T11:35:29;5.63;;;4.80;;
18322;SDS011;9287;49.456;11.064;2023-04-06T11:38:02;4.90;;;4.47;;
18322;SDS011;9287;49.456;11.064;2023-04-06T11:40:30;4.50;;;4.10;;
18322;SDS011;9287;49.456;11.064;2023-04-06T11:42:59;5.43;;;4.47;;
18322;SDS011;9287;49.456;11.064;2023-04-06T11:45:28;5.23;;;4.73;;
18322;SDS011;9287;49.456;11.064;2023-04-06T11:48:17;4.97;;;4.57;;
18322;SDS011;9287;49.456;11.064;2023-04-06T11:50:46;5.43;;;4.93;;
18322;SDS011;9287;49.456;11.064;2023-04-06T11:53:15;5.67;;;4.53;;
18322;SDS011;9287;49.456;11.064;2023-04-06T11:55:43;5.80;;;4.43;;
18322;SDS011;9287;49.456;11.064;2023-04-06T11:58:13;3.90;;;3.60;;
18322;SDS011;9287;49.456;11.064;2023-04-06T12:00:43;4.70;;;4.30;;
18322;SDS011;9287;49.456;11.064;2023-04-06T12:03:13;7.93;;;4.60;;
18322;SDS011;9287;49.456;11.064;2023-04-06T12:05:41;4.73;;;4.33;;
18322;SDS011;9287;49.456;11.064;2023-04-06T12:08:10;6.37;;;4.07;;
18322;SDS011;9287;49.456;11.064;2023-04-06T12:10:38;5.20;;;4.80;;
18322;SDS011;9287;49.456;11.064;2023-04-06T12:13:06;4.93;;;4.47;;
18322;SDS011;9287;49.456;11.064;2023-04-06T12:15:33;6.50;;;4.87;;
18322;SDS011;9287;49.456;11.064;2023-04-06T12:18:03;6.90;;;5.07;;
18322;SDS011;9287;49.456;11.064;2023-04-06T12:20:31;5.53;;;4.70;;
18322;SDS011;9287;49.456;11.064;2023-04-06T12:22:59;5.10;;;4.57;;
18322;SDS011;9287;49.456;11.064;2023-04-06T12:25:26;4.80;;;4.30;;
18322;SDS011;9287;49.456;11.064;2023-04-06T12:27:56;5.32;;;4.32;;
18322;SDS011;9287;49.456;11.064;2023-04-06T12:30:24;4.80;;;4.40;;
18322;SDS011;9287;49.456;11.064;2023-04-06T12:32:52;6.38;;;4.35;;
18322;SDS011;9287;49.456;11.064;2023-04-06T12:35:21;4.63;;;4.30;;
18322;SDS011;9287;49.456;11.064;2023-04-06T12:37:49;4.43;;;4.03;;
18322;SDS011;9287;49.456;11.064;2023-04-06T12:40:17;4.90;;;4.45;;
18322;SDS011;9287;49.456;11.064;2023-04-06T12:42:45;4.78;;;4.38;;
18322;SDS011;9287;49.456;11.064;2023-04-06T12:45:13;6.32;;;4.75;;
18322;SDS011;9287;49.456;11.064;2023-04-06T12:47:41;4.97;;;4.57;;
18322;SDS011;9287;49.456;11.064;2023-04-06T12:50:09;5.32;;;4.55;;
18322;SDS011;9287;49.456;11.064;2023-04-06T12:52:38;5.55;;;4.97;;
18322;SDS011;9287;49.456;11.064;2023-04-06T12:55:06;6.40;;;4.77;;
18322;SDS011;9287;49.456;11.064;2023-04-06T12:57:35;5.90;;;5.37;;
18322;SDS011;9287;49.456;11.064;2023-04-06T13:00:04;5.73;;;5.23;;
18322;SDS011;9287;49.456;11.064;2023-04-06T13:02:36;6.40;;;4.87;;
18322;SDS011;9287;49.456;11.064;2023-04-06T13:05:04;6.03;;;5.23;;
18322;SDS011;9287;49.456;11.064;2023-04-06T13:07:32;5.80;;;5.27;;
18322;SDS011;9287;49.456;11.064;2023-04-06T13:10:01;5.37;;;4.87;;
18322;SDS011;9287;49.456;11.064;2023-04-06T13:12:29;6.20;;;5.00;;
18322;SDS011;9287;49.456;11.064;2023-04-06T13:14:57;5.60;;;5.10;;
18322;SDS011;9287;49.456;11.064;2023-04-06T13:17:26;5.50;;;5.00;;
18322;SDS011;9287;49.456;11.064;2023-04-06T13:19:54;7.63;;;5.23;;
18322;SDS011;9287;49.456;11.064;2023-04-06T13:22:22;5.77;;;5.27;;
18322;SDS011;9287;49.456;11.064;2023-04-06T13:24:50;5.63;;;5.13;;
18322;SDS011;9287;49.456;11.064;2023-04-06T13:27:20;4.87;;;4.47;;
18322;SDS011;9287;49.456;11.064;2023-04-06T13:29:47;5.90;;;4.60;;
18322;SDS011;9287;49.456;11.064;2023-04-06T13:32:15;5.50;;;5.00;;
18322;SDS011;9287;49.456;11.064;2023-04-06T13:34:43;4.40;;;4.10;;
18322;SDS011;9287;49.456;11.064;2023-04-06T13:37:12;5.50;;;5.00;;
18322;SDS011;9287;49.456;11.064;2023-04-06T13:39:40;5.97;;;5.47;;
18322;SDS011;9287;49.456;11.064;2023-04-06T13:42:08;6.60;;;5.70;;
18322;SDS011;9287;49.456;11.064;2023-04-06T13:44:37;6.07;;;5.13;;
18322;SDS011;9287;49.456;11.064;2023-04-06T13:47:05;5.73;;;5.23;;
18322;SDS011;9287;49.456;11.064;2023-04-06T13:49:33;5.90;;;5.40;;
18322;SDS011;9287;49.456;11.064;2023-04-06T13:52:02;5.97;;;5.43;;
18322;SDS011;9287;49.456;11.064;2023-04-06T13:54:30;6.37;;;5.67;;
18322;SDS011;9287;49.456;11.064;2023-04-06T13:56:57;6.40;;;5.80;;
18322;SDS011;9287;49.456;11.064;2023-04-06T13:59:31;5.70;;;5.20;;
18322;SDS011;9287;49.456;11.064;2023-04-06T14:02:00;5.70;;;5.20;;
18322;SDS011;9287;49.456;11.064;2023-04-06T14:04:28;4.97;;;4.30;;
18322;SDS011;9287;49.456;11.064;2023-04-06T14:06:57;5.80;;;5.20;;
18322;SDS011;9287;49.456;11.064;2023-04-06T14:09:24;6.17;;;5.57;;
18322;SDS011;9287;49.456;11.064;2023-04-06T14:11:52;6.07;;;5.57;;
18322;SDS011;9287;49.456;11.064;2023-04-06T14:14:21;6.47;;;5.87;;
18322;SDS011;9287;49.456;11.064;2023-04-06T14:16:50;5.80;;;5.30;;
18322;SDS011;9287;49.456;11.064;2023-04-06T14:19:19;9.90;;;5.97;;
18322;SDS011;9287;49.456;11.064;2023-04-06T14:21:47;6.23;;;5.67;;
18322;SDS011;9287;49.456;11.064;2023-04-06T14:24:15;5.47;;;4.97;;
18322;SDS011;9287;49.456;11.064;2023-04-06T14:26:45;5.23;;;4.77;;
18322;SDS011;9287;49.456;11.064;2023-04-06T14:29:12;6.37;;;5.87;;
18322;SDS011;9287;49.456;11.064;2023-04-06T14:31:41;6.13;;;5.53;;
18322;SDS011;9287;49.456;11.064;2023-04-06T14:34:09;5.00;;;4.60;;
18322;SDS011;9287;49.456;11.064;2023-04-06T14:36:39;5.60;;;5.10;;
18322;SDS011;9287;49.456;11.064;2023-04-06T14:39:07;6.60;;;6.00;;
18322;SDS011;9287;49.456;11.064;2023-04-06T14:41:36;5.93;;;5.20;;
18322;SDS011;9287;49.456;11.064;2023-04-06T14:44:04;6.00;;;5.03;;
18322;SDS011;9287;49.456;11.064;2023-04-06T14:46:32;5.70;;;5.20;;
18322;SDS011;9287;49.456;11.064;2023-04-06T14:49:00;5.57;;;5.07;;
18322;SDS011;9287;49.456;11.064;2023-04-06T14:51:27;4.90;;;4.50;;
18322;SDS011;9287;49.456;11.064;2023-04-06T14:54:10;5.43;;;4.93;;
18322;SDS011;9287;49.456;11.064;2023-04-06T14:56:38;5.90;;;5.40;;
18322;SDS011;9287;49.456;11.064;2023-04-06T14:59:06;6.33;;;5.00;;